sensor_id;sensor_type;location;lat;lon;timestamp;P1;durP1;ratioP1;P2;durP2;ratioP2
48975;SDS011;34791;52.752;8.346;2022-12-29T00:01:12;70.67;;;6.70;;
48975;SDS011;34791;52.752;8.346;2022-12-29T00:03:38;9.80;;;7.17;;
48975;SDS011;34791;52.752;8.346;2022-12-29T00:06:03;8.53;;;7.33;;
48975;SDS011;34791;52.752;8.346;2022-12-29T00:08:28;10.97;;;6.20;;
48975;SDS011;34791;52.752;8.346;2022-12-29T00:11:09;103.53;;;6.77;;
48975;SDS011;34791;52.752;8.346;2022-12-29T00:13:36;8.90;;;6.50;;
48975;SDS011;34791;52.752;8.346;2022-12-29T00:16:21;12.80;;;5.87;;
48975;SDS011;34791;52.752;8.346;2022-12-29T00:18:47;8.10;;;6.93;;
48975;SDS011;34791;52.752;8.346;2022-12-29T00:21:16;9.57;;;6.07;;
48975;SDS011;34791;52.752;8.346;2022-12-29T00:24:02;7.20;;;5.37;;
48975;SDS011;34791;52.752;8.346;2022-12-29T00:26:47;7.10;;;5.43;;
48975;SDS011;34791;52.752;8.346;2022-12-29T00:29:33;10.20;;;5.83;;
48975;SDS011;34791;52.752;8.346;2022-12-29T00:32:17;66.70;;;6.37;;
48975;SDS011;34791;52.752;8.346;2022-12-29T00:35:01;7.80;;;5.00;;
48975;SDS011;34791;52.752;8.346;2022-12-29T00:37:36;6.17;;;4.20;;
48975;SDS011;34791;52.752;8.346;2022-12-29T00:40:24;6.50;;;4.83;;
48975;SDS011;34791;52.752;8.346;2022-12-29T00:43:08;7.60;;;5.67;;
48975;SDS011;34791;52.752;8.346;2022-12-29T00:45:52;7.23;;;4.87;;
48975;SDS011;34791;52.752;8.346;2022-12-29T00:48:17;5.33;;;3.97;;
48975;SDS011;34791;52.752;8.346;2022-12-29T00:51:05;6.73;;;5.13;;
48975;SDS011;34791;52.752;8.346;2022-12-29T00:53:31;5.90;;;4.10;;
48975;SDS011;34791;52.752;8.346;2022-12-29T00:55:57;7.20;;;4.57;;
48975;SDS011;34791;52.752;8.346;2022-12-29T00:58:22;6.97;;;4.90;;
48975;SDS011;34791;52.752;8.346;2022-12-29T01:00:48;35.30;;;5.13;;
48975;SDS011;34791;52.752;8.346;2022-12-29T01:03:13;6.90;;;5.23;;
48975;SDS011;34791;52.752;8.346;2022-12-29T01:05:38;7.03;;;5.60;;
48975;SDS011;34791;52.752;8.346;2022-12-29T01:08:04;487.63;;;16.43;;
48975;SDS011;34791;52.752;8.346;2022-12-29T01:10:29;7.00;;;4.90;;
48975;SDS011;34791;52.752;8.346;2022-12-29T01:12:55;6.97;;;5.40;;
48975;SDS011;34791;52.752;8.346;2022-12-29T01:15:20;7.27;;;5.50;;
48975;SDS011;34791;52.752;8.346;2022-12-29T01:17:46;7.37;;;5.67;;
48975;SDS011;34791;52.752;8.346;2022-12-29T01:20:12;6.43;;;4.87;;
48975;SDS011;34791;52.752;8.346;2022-12-29T01:22:37;8.27;;;4.80;;
48975;SDS011;34791;52.752;8.346;2022-12-29T01:25:04;7.43;;;5.10;;
48975;SDS011;34791;52.752;8.346;2022-12-29T01:27:29;6.00;;;4.30;;
48975;SDS011;34791;52.752;8.346;2022-12-29T01:29:55;6.00;;;4.30;;
48975;SDS011;34791;52.752;8.346;2022-12-29T01:32:20;5.80;;;4.40;;
48975;SDS011;34791;52.752;8.346;2022-12-29T01:34:45;6.43;;;4.57;;
48975;SDS011;34791;52.752;8.346;2022-12-29T01:37:11;6.33;;;4.23;;
48975;SDS011;34791;52.752;8.346;2022-12-29T01:39:36;5.50;;;3.80;;
48975;SDS011;34791;52.752;8.346;2022-12-29T01:42:02;6.57;;;4.63;;
48975;SDS011;34791;52.752;8.346;2022-12-29T01:50:08;5.93;;;4.23;;
48975;SDS011;34791;52.752;8.346;2022-12-29T01:52:38;5.83;;;4.70;;
48975;SDS011;34791;52.752;8.346;2022-12-29T01:55:09;6.13;;;4.73;;
48975;SDS011;34791;52.752;8.346;2022-12-29T01:57:37;6.37;;;4.60;;
48975;SDS011;34791;52.752;8.346;2022-12-29T02:00:12;5.90;;;4.40;;
48975;SDS011;34791;52.752;8.346;2022-12-29T02:02:38;6.50;;;3.97;;
48975;SDS011;34791;52.752;8.346;2022-12-29T02:05:11;6.50;;;4.20;;
48975;SDS011;34791;52.752;8.346;2022-12-29T02:07:46;6.23;;;4.90;;
48975;SDS011;34791;52.752;8.346;2022-12-29T02:10:13;5.43;;;3.67;;
48975;SDS011;34791;52.752;8.346;2022-12-29T02:12:38;5.17;;;3.73;;
48975;SDS011;34791;52.752;8.346;2022-12-29T02:15:04;6.20;;;4.80;;
48975;SDS011;34791;52.752;8.346;2022-12-29T02:20:50;5.57;;;4.10;;
48975;SDS011;34791;52.752;8.346;2022-12-29T02:36:55;4.97;;;3.30;;
48975;SDS011;34791;52.752;8.346;2022-12-29T02:39:51;4.57;;;3.10;;
48975;SDS011;34791;52.752;8.346;2022-12-29T02:42:36;5.90;;;2.73;;
48975;SDS011;34791;52.752;8.346;2022-12-29T02:45:20;27.87;;;2.23;;
48975;SDS011;34791;52.752;8.346;2022-12-29T02:50:38;4.27;;;2.20;;
48975;SDS011;34791;52.752;8.346;2022-12-29T02:53:09;3.37;;;2.00;;
48975;SDS011;34791;52.752;8.346;2022-12-29T02:55:35;3.10;;;1.90;;
48975;SDS011;34791;52.752;8.346;2022-12-29T02:58:06;9.27;;;2.37;;
48975;SDS011;34791;52.752;8.346;2022-12-29T03:01:11;5.03;;;2.40;;
48975;SDS011;34791;52.752;8.346;2022-12-29T03:12:15;4.67;;;3.20;;
48975;SDS011;34791;52.752;8.346;2022-12-29T03:15:15;4.70;;;3.30;;
48975;SDS011;34791;52.752;8.346;2022-12-29T03:18:06;114.00;;;5.22;;
48975;SDS011;34791;52.752;8.346;2022-12-29T03:20:39;8.93;;;4.10;;
48975;SDS011;34791;52.752;8.346;2022-12-29T03:23:10;5.90;;;4.27;;
48975;SDS011;34791;52.752;8.346;2022-12-29T03:25:39;5.07;;;3.33;;
48975;SDS011;34791;52.752;8.346;2022-12-29T03:28:12;5.40;;;3.60;;
48975;SDS011;34791;52.752;8.346;2022-12-29T03:30:43;6.30;;;4.60;;
48975;SDS011;34791;52.752;8.346;2022-12-29T03:33:12;5.30;;;3.80;;
48975;SDS011;34791;52.752;8.346;2022-12-29T03:35:41;9.90;;;5.37;;
48975;SDS011;34791;52.752;8.346;2022-12-29T03:40:51;5.90;;;4.23;;
48975;SDS011;34791;52.752;8.346;2022-12-29T03:43:17;7.30;;;5.13;;
48975;SDS011;34791;52.752;8.346;2022-12-29T03:45:43;6.13;;;4.53;;
48975;SDS011;34791;52.752;8.346;2022-12-29T03:48:08;5.87;;;3.63;;
48975;SDS011;34791;52.752;8.346;2022-12-29T03:50:33;7.60;;;4.93;;
48975;SDS011;34791;52.752;8.346;2022-12-29T03:52:59;5.07;;;3.60;;
48975;SDS011;34791;52.752;8.346;2022-12-29T03:55:24;4.73;;;3.47;;
48975;SDS011;34791;52.752;8.346;2022-12-29T03:57:50;6.73;;;4.60;;
48975;SDS011;34791;52.752;8.346;2022-12-29T04:00:15;6.17;;;5.00;;
48975;SDS011;34791;52.752;8.346;2022-12-29T04:02:41;7.00;;;4.43;;
48975;SDS011;34791;52.752;8.346;2022-12-29T04:05:06;6.77;;;4.47;;
48975;SDS011;34791;52.752;8.346;2022-12-29T04:07:32;6.23;;;4.67;;
48975;SDS011;34791;52.752;8.346;2022-12-29T04:09:58;7.50;;;4.50;;
48975;SDS011;34791;52.752;8.346;2022-12-29T04:12:23;7.83;;;5.30;;
48975;SDS011;34791;52.752;8.346;2022-12-29T04:14:48;7.27;;;4.73;;
48975;SDS011;34791;52.752;8.346;2022-12-29T04:17:14;5.90;;;4.20;;
48975;SDS011;34791;52.752;8.346;2022-12-29T04:19:39;6.10;;;3.87;;
48975;SDS011;34791;52.752;8.346;2022-12-29T04:22:05;6.10;;;3.93;;
48975;SDS011;34791;52.752;8.346;2022-12-29T04:24:30;3.93;;;2.57;;
48975;SDS011;34791;52.752;8.346;2022-12-29T04:26:55;4.53;;;3.17;;
48975;SDS011;34791;52.752;8.346;2022-12-29T04:29:21;5.00;;;3.43;;
48975;SDS011;34791;52.752;8.346;2022-12-29T04:31:46;5.87;;;3.53;;
48975;SDS011;34791;52.752;8.346;2022-12-29T04:34:12;5.07;;;3.50;;
48975;SDS011;34791;52.752;8.346;2022-12-29T04:36:37;4.23;;;2.93;;
48975;SDS011;34791;52.752;8.346;2022-12-29T04:39:04;4.53;;;2.90;;
48975;SDS011;34791;52.752;8.346;2022-12-29T04:41:30;4.67;;;2.93;;
48975;SDS011;34791;52.752;8.346;2022-12-29T04:43:55;5.10;;;3.30;;
48975;SDS011;34791;52.752;8.346;2022-12-29T04:46:21;4.70;;;2.63;;
48975;SDS011;34791;52.752;8.346;2022-12-29T04:48:46;3.97;;;2.00;;
48975;SDS011;34791;52.752;8.346;2022-12-29T04:51:12;4.20;;;2.27;;
48975;SDS011;34791;52.752;8.346;2022-12-29T04:53:37;3.27;;;1.80;;
48975;SDS011;34791;52.752;8.346;2022-12-29T04:56:02;3.40;;;1.77;;
48975;SDS011;34791;52.752;8.346;2022-12-29T04:58:28;3.67;;;1.73;;
48975;SDS011;34791;52.752;8.346;2022-12-29T05:00:53;3.53;;;1.60;;
48975;SDS011;34791;52.752;8.346;2022-12-29T05:03:18;2.80;;;1.50;;
48975;SDS011;34791;52.752;8.346;2022-12-29T05:05:44;2.83;;;1.40;;
48975;SDS011;34791;52.752;8.346;2022-12-29T05:08:09;3.90;;;1.57;;
48975;SDS011;34791;52.752;8.346;2022-12-29T05:10:34;3.27;;;1.77;;
48975;SDS011;34791;52.752;8.346;2022-12-29T05:13:00;2.13;;;1.10;;
48975;SDS011;34791;52.752;8.346;2022-12-29T05:15:26;3.00;;;1.30;;
48975;SDS011;34791;52.752;8.346;2022-12-29T05:17:51;3.43;;;1.50;;
48975;SDS011;34791;52.752;8.346;2022-12-29T05:20:17;5.00;;;1.63;;
48975;SDS011;34791;52.752;8.346;2022-12-29T05:22:42;1.70;;;1.00;;
48975;SDS011;34791;52.752;8.346;2022-12-29T05:25:08;4.00;;;1.57;;
48975;SDS011;34791;52.752;8.346;2022-12-29T05:27:34;2.50;;;1.20;;
48975;SDS011;34791;52.752;8.346;2022-12-29T05:29:59;2.87;;;1.17;;
48975;SDS011;34791;52.752;8.346;2022-12-29T05:32:24;2.83;;;1.30;;
48975;SDS011;34791;52.752;8.346;2022-12-29T05:34:50;2.80;;;1.20;;
48975;SDS011;34791;52.752;8.346;2022-12-29T05:37:15;2.83;;;1.50;;
48975;SDS011;34791;52.752;8.346;2022-12-29T05:39:41;3.60;;;1.30;;
48975;SDS011;34791;52.752;8.346;2022-12-29T05:42:06;6.00;;;1.50;;
48975;SDS011;34791;52.752;8.346;2022-12-29T05:44:32;3.60;;;1.70;;
48975;SDS011;34791;52.752;8.346;2022-12-29T05:46:57;3.03;;;1.50;;
48975;SDS011;34791;52.752;8.346;2022-12-29T05:49:22;2.77;;;1.30;;
48975;SDS011;34791;52.752;8.346;2022-12-29T05:51:48;4.63;;;2.00;;
48975;SDS011;34791;52.752;8.346;2022-12-29T05:54:13;3.07;;;1.63;;
48975;SDS011;34791;52.752;8.346;2022-12-29T05:56:38;4.00;;;1.60;;
48975;SDS011;34791;52.752;8.346;2022-12-29T05:59:04;4.43;;;1.70;;
48975;SDS011;34791;52.752;8.346;2022-12-29T06:01:29;3.07;;;1.70;;
48975;SDS011;34791;52.752;8.346;2022-12-29T06:03:54;4.03;;;1.90;;
48975;SDS011;34791;52.752;8.346;2022-12-29T06:06:20;55.27;;;2.53;;
48975;SDS011;34791;52.752;8.346;2022-12-29T06:08:45;3.80;;;1.80;;
48975;SDS011;34791;52.752;8.346;2022-12-29T06:11:11;3.40;;;1.70;;
48975;SDS011;34791;52.752;8.346;2022-12-29T06:13:36;6.43;;;2.27;;
48975;SDS011;34791;52.752;8.346;2022-12-29T06:16:02;5.77;;;2.03;;
48975;SDS011;34791;52.752;8.346;2022-12-29T06:18:27;3.87;;;2.00;;
48975;SDS011;34791;52.752;8.346;2022-12-29T06:20:52;114.70;;;3.90;;
48975;SDS011;34791;52.752;8.346;2022-12-29T06:23:18;4.00;;;1.97;;
48975;SDS011;34791;52.752;8.346;2022-12-29T06:25:44;3.60;;;1.67;;
48975;SDS011;34791;52.752;8.346;2022-12-29T06:28:10;5.20;;;2.40;;
48975;SDS011;34791;52.752;8.346;2022-12-29T06:30:35;137.20;;;5.50;;
48975;SDS011;34791;52.752;8.346;2022-12-29T06:33:01;5.27;;;2.00;;
48975;SDS011;34791;52.752;8.346;2022-12-29T06:35:26;3.17;;;1.47;;
48975;SDS011;34791;52.752;8.346;2022-12-29T06:37:51;4.20;;;1.97;;
48975;SDS011;34791;52.752;8.346;2022-12-29T06:40:17;2.87;;;1.53;;
48975;SDS011;34791;52.752;8.346;2022-12-29T06:42:42;2.93;;;1.47;;
48975;SDS011;34791;52.752;8.346;2022-12-29T06:45:08;3.47;;;1.57;;
48975;SDS011;34791;52.752;8.346;2022-12-29T06:47:34;5.23;;;1.70;;
48975;SDS011;34791;52.752;8.346;2022-12-29T06:50:00;9.10;;;2.10;;
48975;SDS011;34791;52.752;8.346;2022-12-29T06:52:25;5.53;;;2.10;;
48975;SDS011;34791;52.752;8.346;2022-12-29T06:54:51;6.20;;;1.83;;
48975;SDS011;34791;52.752;8.346;2022-12-29T06:57:17;5.53;;;1.83;;
48975;SDS011;34791;52.752;8.346;2022-12-29T06:59:42;5.20;;;1.83;;
48975;SDS011;34791;52.752;8.346;2022-12-29T07:02:09;231.37;;;5.73;;
48975;SDS011;34791;52.752;8.346;2022-12-29T07:04:36;3.87;;;1.10;;
48975;SDS011;34791;52.752;8.346;2022-12-29T07:07:01;6.20;;;1.67;;
48975;SDS011;34791;52.752;8.346;2022-12-29T07:09:27;5.10;;;1.00;;
48975;SDS011;34791;52.752;8.346;2022-12-29T07:11:52;28.63;;;1.83;;
48975;SDS011;34791;52.752;8.346;2022-12-29T07:14:18;5.60;;;1.10;;
48975;SDS011;34791;52.752;8.346;2022-12-29T07:16:43;2.57;;;0.80;;
48975;SDS011;34791;52.752;8.346;2022-12-29T07:19:09;1.90;;;0.70;;
48975;SDS011;34791;52.752;8.346;2022-12-29T07:21:34;4.60;;;1.50;;
48975;SDS011;34791;52.752;8.346;2022-12-29T07:24:00;3.27;;;0.80;;
48975;SDS011;34791;52.752;8.346;2022-12-29T07:26:25;2.93;;;0.67;;
48975;SDS011;34791;52.752;8.346;2022-12-29T07:28:50;1.97;;;0.50;;
48975;SDS011;34791;52.752;8.346;2022-12-29T07:31:17;3.53;;;1.00;;
48975;SDS011;34791;52.752;8.346;2022-12-29T07:33:44;3.37;;;0.70;;
48975;SDS011;34791;52.752;8.346;2022-12-29T07:36:10;2.97;;;0.70;;
48975;SDS011;34791;52.752;8.346;2022-12-29T07:38:37;5.53;;;0.80;;
48975;SDS011;34791;52.752;8.346;2022-12-29T07:41:02;32.67;;;1.73;;
48975;SDS011;34791;52.752;8.346;2022-12-29T07:43:28;2.13;;;0.83;;
48975;SDS011;34791;52.752;8.346;2022-12-29T07:45:53;3.20;;;0.80;;
48975;SDS011;34791;52.752;8.346;2022-12-29T07:48:19;4.70;;;1.13;;
48975;SDS011;34791;52.752;8.346;2022-12-29T07:50:44;2.43;;;0.77;;
48975;SDS011;34791;52.752;8.346;2022-12-29T07:53:10;5.03;;;1.00;;
48975;SDS011;34791;52.752;8.346;2022-12-29T07:55:35;4.83;;;1.10;;
48975;SDS011;34791;52.752;8.346;2022-12-29T07:58:00;3.63;;;1.17;;
48975;SDS011;34791;52.752;8.346;2022-12-29T08:00:26;7.50;;;1.93;;
48975;SDS011;34791;52.752;8.346;2022-12-29T08:02:52;3.23;;;1.00;;
48975;SDS011;34791;52.752;8.346;2022-12-29T08:05:17;4.53;;;1.07;;
48975;SDS011;34791;52.752;8.346;2022-12-29T08:07:43;8.03;;;1.30;;
48975;SDS011;34791;52.752;8.346;2022-12-29T08:10:09;6.03;;;1.97;;
48975;SDS011;34791;52.752;8.346;2022-12-29T08:12:35;4.20;;;1.53;;
48975;SDS011;34791;52.752;8.346;2022-12-29T08:15:02;4.97;;;1.30;;
48975;SDS011;34791;52.752;8.346;2022-12-29T08:17:28;7.50;;;1.50;;
48975;SDS011;34791;52.752;8.346;2022-12-29T08:19:53;4.53;;;1.23;;
48975;SDS011;34791;52.752;8.346;2022-12-29T08:22:18;4.57;;;1.90;;
48975;SDS011;34791;52.752;8.346;2022-12-29T08:24:44;5.80;;;1.47;;
48975;SDS011;34791;52.752;8.346;2022-12-29T08:27:09;73.87;;;3.03;;
48975;SDS011;34791;52.752;8.346;2022-12-29T08:29:35;8.60;;;1.70;;
48975;SDS011;34791;52.752;8.346;2022-12-29T08:32:00;6.27;;;1.47;;
48975;SDS011;34791;52.752;8.346;2022-12-29T08:34:25;4.37;;;1.50;;
48975;SDS011;34791;52.752;8.346;2022-12-29T08:36:51;7.70;;;1.30;;
48975;SDS011;34791;52.752;8.346;2022-12-29T08:39:16;7.73;;;1.90;;
48975;SDS011;34791;52.752;8.346;2022-12-29T08:41:42;6.97;;;1.40;;
48975;SDS011;34791;52.752;8.346;2022-12-29T08:44:07;5.27;;;1.03;;
48975;SDS011;34791;52.752;8.346;2022-12-29T08:46:33;6.70;;;1.30;;
48975;SDS011;34791;52.752;8.346;2022-12-29T08:48:58;10.77;;;2.17;;
48975;SDS011;34791;52.752;8.346;2022-12-29T08:51:23;12.37;;;2.33;;
48975;SDS011;34791;52.752;8.346;2022-12-29T08:53:49;7.03;;;1.43;;
48975;SDS011;34791;52.752;8.346;2022-12-29T08:56:15;7.23;;;1.20;;
48975;SDS011;34791;52.752;8.346;2022-12-29T08:58:41;6.23;;;1.70;;
48975;SDS011;34791;52.752;8.346;2022-12-29T09:01:06;7.73;;;1.30;;
48975;SDS011;34791;52.752;8.346;2022-12-29T09:03:32;6.30;;;1.30;;
48975;SDS011;34791;52.752;8.346;2022-12-29T09:05:57;7.87;;;2.17;;
48975;SDS011;34791;52.752;8.346;2022-12-29T09:08:22;8.23;;;2.30;;
48975;SDS011;34791;52.752;8.346;2022-12-29T09:10:48;5.37;;;1.03;;
48975;SDS011;34791;52.752;8.346;2022-12-29T09:13:15;8.80;;;1.27;;
48975;SDS011;34791;52.752;8.346;2022-12-29T09:15:41;4.03;;;1.13;;
48975;SDS011;34791;52.752;8.346;2022-12-29T09:18:07;5.73;;;1.00;;
48975;SDS011;34791;52.752;8.346;2022-12-29T09:20:33;11.03;;;1.20;;
48975;SDS011;34791;52.752;8.346;2022-12-29T09:22:58;5.00;;;0.70;;
48975;SDS011;34791;52.752;8.346;2022-12-29T09:25:24;3.80;;;0.80;;
48975;SDS011;34791;52.752;8.346;2022-12-29T09:27:52;6.23;;;1.40;;
48975;SDS011;34791;52.752;8.346;2022-12-29T09:30:18;3.77;;;1.13;;
48975;SDS011;34791;52.752;8.346;2022-12-29T09:32:46;6.67;;;1.53;;
48975;SDS011;34791;52.752;8.346;2022-12-29T09:35:12;6.73;;;1.37;;
48975;SDS011;34791;52.752;8.346;2022-12-29T09:37:38;6.73;;;1.10;;
48975;SDS011;34791;52.752;8.346;2022-12-29T09:40:04;9.87;;;1.80;;
48975;SDS011;34791;52.752;8.346;2022-12-29T09:47:42;6.17;;;1.10;;
48975;SDS011;34791;52.752;8.346;2022-12-29T09:55:45;6.87;;;1.33;;
48975;SDS011;34791;52.752;8.346;2022-12-29T10:04:06;10.37;;;1.80;;
48975;SDS011;34791;52.752;8.346;2022-12-29T10:23:32;5.30;;;1.67;;
48975;SDS011;34791;52.752;8.346;2022-12-29T10:26:00;7.30;;;1.53;;
48975;SDS011;34791;52.752;8.346;2022-12-29T10:28:34;8.83;;;1.80;;
48975;SDS011;34791;52.752;8.346;2022-12-29T10:31:05;6.43;;;1.43;;
48975;SDS011;34791;52.752;8.346;2022-12-29T10:33:46;8.93;;;1.50;;
48975;SDS011;34791;52.752;8.346;2022-12-29T10:36:17;10.83;;;1.63;;
48975;SDS011;34791;52.752;8.346;2022-12-29T10:39:01;10.90;;;2.13;;
48975;SDS011;34791;52.752;8.346;2022-12-29T10:41:39;8.33;;;1.70;;
48975;SDS011;34791;52.752;8.346;2022-12-29T10:44:12;8.00;;;1.43;;
48975;SDS011;34791;52.752;8.346;2022-12-29T10:46:40;7.27;;;1.70;;
48975;SDS011;34791;52.752;8.346;2022-12-29T10:49:09;6.53;;;1.63;;
48975;SDS011;34791;52.752;8.346;2022-12-29T10:51:42;77.67;;;2.87;;
48975;SDS011;34791;52.752;8.346;2022-12-29T10:56:50;7.28;;;1.40;;
48975;SDS011;34791;52.752;8.346;2022-12-29T10:59:28;5.33;;;1.30;;
48975;SDS011;34791;52.752;8.346;2022-12-29T11:07:23;10.90;;;1.77;;
48975;SDS011;34791;52.752;8.346;2022-12-29T11:09:50;9.33;;;1.83;;
48975;SDS011;34791;52.752;8.346;2022-12-29T11:14:59;5.93;;;1.38;;
48975;SDS011;34791;52.752;8.346;2022-12-29T11:17:53;6.83;;;1.57;;
48975;SDS011;34791;52.752;8.346;2022-12-29T11:23:00;8.23;;;1.23;;
48975;SDS011;34791;52.752;8.346;2022-12-29T11:25:27;3.67;;;1.20;;
48975;SDS011;34791;52.752;8.346;2022-12-29T11:30:23;4.97;;;1.20;;
48975;SDS011;34791;52.752;8.346;2022-12-29T11:32:51;6.17;;;1.10;;
48975;SDS011;34791;52.752;8.346;2022-12-29T11:35:34;10.70;;;1.37;;
48975;SDS011;34791;52.752;8.346;2022-12-29T11:38:03;7.33;;;1.10;;
48975;SDS011;34791;52.752;8.346;2022-12-29T11:40:30;58.60;;;2.93;;
48975;SDS011;34791;52.752;8.346;2022-12-29T11:42:56;8.60;;;1.43;;
48975;SDS011;34791;52.752;8.346;2022-12-29T11:45:28;9.50;;;1.00;;
48975;SDS011;34791;52.752;8.346;2022-12-29T11:48:00;4.95;;;0.85;;
48975;SDS011;34791;52.752;8.346;2022-12-29T11:52:58;6.47;;;1.13;;
48975;SDS011;34791;52.752;8.346;2022-12-29T11:55:25;3.10;;;0.70;;
48975;SDS011;34791;52.752;8.346;2022-12-29T11:57:51;7.43;;;1.33;;
48975;SDS011;34791;52.752;8.346;2022-12-29T12:00:23;56.23;;;1.60;;
48975;SDS011;34791;52.752;8.346;2022-12-29T12:02:58;9.73;;;2.13;;
48975;SDS011;34791;52.752;8.346;2022-12-29T12:08:12;6.80;;;1.17;;
48975;SDS011;34791;52.752;8.346;2022-12-29T12:16:24;7.03;;;1.00;;
48975;SDS011;34791;52.752;8.346;2022-12-29T12:18:58;6.27;;;1.10;;
48975;SDS011;34791;52.752;8.346;2022-12-29T12:21:36;4.07;;;0.77;;
48975;SDS011;34791;52.752;8.346;2022-12-29T12:26:59;6.27;;;0.90;;
48975;SDS011;34791;52.752;8.346;2022-12-29T12:29:32;224.43;;;5.93;;
48975;SDS011;34791;52.752;8.346;2022-12-29T12:32:12;4.37;;;1.23;;
48975;SDS011;34791;52.752;8.346;2022-12-29T12:34:53;134.98;;;3.58;;
48975;SDS011;34791;52.752;8.346;2022-12-29T12:54:00;2.20;;;0.70;;
48975;SDS011;34791;52.752;8.346;2022-12-29T12:56:31;2.93;;;0.83;;
48975;SDS011;34791;52.752;8.346;2022-12-29T13:11:12;237.83;;;6.17;;
48975;SDS011;34791;52.752;8.346;2022-12-29T13:16:25;3.47;;;0.77;;
48975;SDS011;34791;52.752;8.346;2022-12-29T13:30:04;5.37;;;1.20;;
48975;SDS011;34791;52.752;8.346;2022-12-29T13:40:43;3.37;;;0.93;;
48975;SDS011;34791;52.752;8.346;2022-12-29T13:43:12;3.23;;;0.93;;
48975;SDS011;34791;52.752;8.346;2022-12-29T13:45:40;21.93;;;1.53;;
48975;SDS011;34791;52.752;8.346;2022-12-29T13:48:14;7.70;;;1.37;;
48975;SDS011;34791;52.752;8.346;2022-12-29T13:50:46;7.23;;;1.50;;
48975;SDS011;34791;52.752;8.346;2022-12-29T14:01:37;6.20;;;1.67;;
48975;SDS011;34791;52.752;8.346;2022-12-29T14:04:12;6.77;;;1.67;;
48975;SDS011;34791;52.752;8.346;2022-12-29T14:06:39;6.55;;;1.80;;
48975;SDS011;34791;52.752;8.346;2022-12-29T14:09:07;7.43;;;1.80;;
48975;SDS011;34791;52.752;8.346;2022-12-29T14:11:59;9.73;;;2.30;;
48975;SDS011;34791;52.752;8.346;2022-12-29T14:14:27;8.43;;;1.53;;
48975;SDS011;34791;52.752;8.346;2022-12-29T14:16:57;59.40;;;2.30;;
48975;SDS011;34791;52.752;8.346;2022-12-29T14:19:35;8.30;;;1.97;;
48975;SDS011;34791;52.752;8.346;2022-12-29T14:22:07;11.60;;;1.90;;
48975;SDS011;34791;52.752;8.346;2022-12-29T14:27:00;8.53;;;2.00;;
48975;SDS011;34791;52.752;8.346;2022-12-29T14:31:54;10.20;;;1.70;;
48975;SDS011;34791;52.752;8.346;2022-12-29T14:44:53;8.43;;;1.97;;
48975;SDS011;34791;52.752;8.346;2022-12-29T14:47:32;6.53;;;1.77;;
48975;SDS011;34791;52.752;8.346;2022-12-29T14:52:48;7.77;;;1.97;;
48975;SDS011;34791;52.752;8.346;2022-12-29T14:57:49;6.60;;;1.83;;
48975;SDS011;34791;52.752;8.346;2022-12-29T15:00:23;5.00;;;1.50;;
48975;SDS011;34791;52.752;8.346;2022-12-29T15:03:07;6.43;;;1.40;;
48975;SDS011;34791;52.752;8.346;2022-12-29T15:08:09;6.40;;;1.67;;
48975;SDS011;34791;52.752;8.346;2022-12-29T15:10:39;6.00;;;1.30;;
48975;SDS011;34791;52.752;8.346;2022-12-29T15:13:14;6.07;;;1.67;;
48975;SDS011;34791;52.752;8.346;2022-12-29T15:15:42;5.30;;;1.67;;
48975;SDS011;34791;52.752;8.346;2022-12-29T15:18:41;5.40;;;1.63;;
48975;SDS011;34791;52.752;8.346;2022-12-29T15:23:26;7.30;;;1.43;;
48975;SDS011;34791;52.752;8.346;2022-12-29T15:26:00;7.80;;;2.10;;
48975;SDS011;34791;52.752;8.346;2022-12-29T15:28:38;8.47;;;2.80;;
48975;SDS011;34791;52.752;8.346;2022-12-29T15:31:11;9.73;;;2.40;;
48975;SDS011;34791;52.752;8.346;2022-12-29T15:33:43;5.43;;;1.88;;
48975;SDS011;34791;52.752;8.346;2022-12-29T15:36:10;11.88;;;4.00;;
48975;SDS011;34791;52.752;8.346;2022-12-29T15:38:38;7.87;;;2.03;;
48975;SDS011;34791;52.752;8.346;2022-12-29T15:41:05;12.47;;;2.50;;
48975;SDS011;34791;52.752;8.346;2022-12-29T15:46:13;9.53;;;2.70;;
48975;SDS011;34791;52.752;8.346;2022-12-29T15:48:39;8.93;;;2.57;;
48975;SDS011;34791;52.752;8.346;2022-12-29T15:51:23;7.30;;;2.43;;
48975;SDS011;34791;52.752;8.346;2022-12-29T15:53:54;9.43;;;2.60;;
48975;SDS011;34791;52.752;8.346;2022-12-29T15:56:20;9.87;;;2.43;;
48975;SDS011;34791;52.752;8.346;2022-12-29T15:58:49;10.70;;;2.70;;
48975;SDS011;34791;52.752;8.346;2022-12-29T16:01:34;9.17;;;2.83;;
48975;SDS011;34791;52.752;8.346;2022-12-29T16:04:03;8.40;;;2.70;;
48975;SDS011;34791;52.752;8.346;2022-12-29T16:06:32;10.67;;;3.30;;
48975;SDS011;34791;52.752;8.346;2022-12-29T16:11:55;14.33;;;3.50;;
48975;SDS011;34791;52.752;8.346;2022-12-29T16:14:28;11.63;;;3.20;;
48975;SDS011;34791;52.752;8.346;2022-12-29T16:19:27;8.60;;;2.57;;
48975;SDS011;34791;52.752;8.346;2022-12-29T16:21:57;16.30;;;3.30;;
48975;SDS011;34791;52.752;8.346;2022-12-29T16:24:26;11.30;;;2.80;;
48975;SDS011;34791;52.752;8.346;2022-12-29T16:27:08;13.20;;;2.73;;
48975;SDS011;34791;52.752;8.346;2022-12-29T16:29:45;7.27;;;2.20;;
48975;SDS011;34791;52.752;8.346;2022-12-29T16:32:24;9.53;;;2.57;;
48975;SDS011;34791;52.752;8.346;2022-12-29T16:34:51;9.57;;;3.37;;
48975;SDS011;34791;52.752;8.346;2022-12-29T16:37:31;8.17;;;2.63;;
48975;SDS011;34791;52.752;8.346;2022-12-29T16:47:48;9.40;;;2.70;;
48975;SDS011;34791;52.752;8.346;2022-12-29T16:50:18;13.17;;;2.73;;
48975;SDS011;34791;52.752;8.346;2022-12-29T16:52:50;13.37;;;3.30;;
48975;SDS011;34791;52.752;8.346;2022-12-29T16:55:16;10.80;;;2.80;;
48975;SDS011;34791;52.752;8.346;2022-12-29T16:57:43;9.40;;;2.83;;
48975;SDS011;34791;52.752;8.346;2022-12-29T17:00:33;14.10;;;2.83;;
48975;SDS011;34791;52.752;8.346;2022-12-29T17:03:01;12.27;;;2.88;;
48975;SDS011;34791;52.752;8.346;2022-12-29T17:05:28;9.30;;;2.57;;
48975;SDS011;34791;52.752;8.346;2022-12-29T17:07:53;12.33;;;2.77;;
48975;SDS011;34791;52.752;8.346;2022-12-29T17:10:19;8.17;;;2.30;;
48975;SDS011;34791;52.752;8.346;2022-12-29T17:12:46;8.13;;;2.40;;
48975;SDS011;34791;52.752;8.346;2022-12-29T17:15:25;9.83;;;2.60;;
48975;SDS011;34791;52.752;8.346;2022-12-29T17:17:56;6.57;;;1.77;;
48975;SDS011;34791;52.752;8.346;2022-12-29T17:20:27;5.93;;;1.90;;
48975;SDS011;34791;52.752;8.346;2022-12-29T17:22:55;5.37;;;1.80;;
48975;SDS011;34791;52.752;8.346;2022-12-29T17:25:32;7.13;;;1.90;;
48975;SDS011;34791;52.752;8.346;2022-12-29T17:28:09;7.20;;;1.80;;
48975;SDS011;34791;52.752;8.346;2022-12-29T17:30:41;12.10;;;1.93;;
48975;SDS011;34791;52.752;8.346;2022-12-29T17:33:09;7.00;;;1.60;;
48975;SDS011;34791;52.752;8.346;2022-12-29T17:35:38;7.57;;;1.75;;
48975;SDS011;34791;52.752;8.346;2022-12-29T17:38:17;4.10;;;1.30;;
48975;SDS011;34791;52.752;8.346;2022-12-29T17:40:45;4.82;;;1.67;;
48975;SDS011;34791;52.752;8.346;2022-12-29T17:43:12;3.93;;;1.13;;
48975;SDS011;34791;52.752;8.346;2022-12-29T17:45:39;6.07;;;1.63;;
48975;SDS011;34791;52.752;8.346;2022-12-29T17:48:24;6.47;;;2.20;;
48975;SDS011;34791;52.752;8.346;2022-12-29T17:50:50;9.00;;;2.47;;
48975;SDS011;34791;52.752;8.346;2022-12-29T17:53:22;8.63;;;2.33;;
48975;SDS011;34791;52.752;8.346;2022-12-29T18:00:42;7.47;;;1.60;;
48975;SDS011;34791;52.752;8.346;2022-12-29T18:03:12;7.73;;;1.43;;
48975;SDS011;34791;52.752;8.346;2022-12-29T18:05:57;5.13;;;1.50;;
48975;SDS011;34791;52.752;8.346;2022-12-29T18:08:23;8.00;;;2.07;;
48975;SDS011;34791;52.752;8.346;2022-12-29T18:10:52;4.93;;;1.90;;
48975;SDS011;34791;52.752;8.346;2022-12-29T18:13:20;63.67;;;3.10;;
48975;SDS011;34791;52.752;8.346;2022-12-29T18:15:48;6.50;;;1.53;;
48975;SDS011;34791;52.752;8.346;2022-12-29T18:18:18;7.33;;;2.37;;
48975;SDS011;34791;52.752;8.346;2022-12-29T18:20:45;11.98;;;2.55;;
48975;SDS011;34791;52.752;8.346;2022-12-29T18:23:21;6.27;;;1.90;;